North Conway, New Hampshire
Current Conditions -  °F | °C
As of 10:54 PM on Wednesday 22 Oct 2014 (Local Time) from KIZG Reporting Station
Overcast Overcast  
Wind Chill: 41°   Ceiling: 1400
Heat Index: 47°   Visibility: 10mi
Dew Point: 42°   Wind: 15mph
Humidity: 83%   Direction: 50°NE
Pressure: 30.06"   Gusts: 24mph
Location:  44.05°N, 71.13°W
Report Text: KIZG 230254Z AUTO 05013G21KT 10SM OVC014 08/06 A3006 RMK AO2 SLP181 60000 T00830056 56009
Loading
Personal Weather Stations






























Interactive Weather Map
Tropical Storm Tracking
New forecast layout! Learn more

10-Day Weather Forecast

Advertisements
Track Severe Weather on mobile